Time;durP1;ratioP1;P1;durP2;ratioP2;P2;SDS_P1;SDS_P2;PMS_P1;PMS_P2;Temp;Humidity;BMP_temperature;BMP_pressure;BME280_temperature;BME280_humidity;BME280_pressure;Samples;Min_cycle;Max_cycle;Signal;HPM_P1;HPM_P2
2023/03/02 00:00:27;;;;;;;8.27;5.87;;;4.00;98.60;;;;;;5015753;28;20771;-78
2023/03/02 00:02:53;;;;;;;7.60;6.00;;;3.70;98.60;;;;;;5033832;28;20250;-79
2023/03/02 00:05:18;;;;;;;8.43;6.40;;;4.00;98.80;;;;;;5033052;28;20186;-79
2023/03/02 00:07:44;;;;;;;9.20;6.50;;;3.90;98.70;;;;;;5033055;28;20818;-78
2023/03/02 00:10:10;;;;;;;12.43;6.50;;;4.10;98.80;;;;;;5019031;28;20263;-78
2023/03/02 00:12:36;;;;;;;8.57;6.30;;;3.80;98.80;;;;;;5032734;28;20504;-79
2023/03/02 00:15:02;;;;;;;7.77;5.87;;;3.90;98.80;;;;;;5008905;28;20452;-77
2023/03/02 00:17:27;;;;;;;8.53;6.50;;;3.90;99.00;;;;;;5020793;28;20202;-79
2023/03/02 00:20:10;;;;;;;8.73;6.20;;;3.70;99.00;;;;;;5023582;28;20186;-80
2023/03/02 00:22:43;;;;;;;10.70;6.60;;;3.90;99.20;;;;;;5015755;28;20200;-80
2023/03/02 00:25:11;;;;;;;10.63;6.77;;;3.60;99.00;;;;;;5015332;28;20510;-80
2023/03/02 00:27:36;;;;;;;10.03;6.80;;;3.90;99.00;;;;;;5036486;28;20518;-79
2023/03/02 00:30:03;;;;;;;7.33;5.47;;;3.70;98.90;;;;;;5015346;28;20456;-81
2023/03/02 00:32:28;;;;;;;9.80;6.97;;;3.90;99.00;;;;;;5009312;28;20190;-77
2023/03/02 00:34:54;;;;;;;9.93;6.37;;;3.70;99.00;;;;;;5010048;28;20461;-80
2023/03/02 00:37:20;;;;;;;8.33;5.87;;;3.80;99.10;;;;;;5039575;28;20221;-81
2023/03/02 00:39:45;;;;;;;7.43;6.00;;;3.90;99.00;;;;;;5026594;28;20187;-80
2023/03/02 00:42:11;;;;;;;8.67;6.37;;;3.70;99.00;;;;;;5038512;28;20190;-79
2023/03/02 00:44:37;;;;;;;7.57;6.03;;;3.80;99.00;;;;;;5010117;28;20191;-80
2023/03/02 00:47:02;;;;;;;6.93;6.07;;;3.70;99.20;;;;;;4999772;28;20341;-80
2023/03/02 00:49:28;;;;;;;9.17;6.67;;;3.70;99.30;;;;;;4982978;28;20827;-80
2023/03/02 00:51:54;;;;;;;10.03;6.73;;;3.70;99.20;;;;;;4999949;28;20182;-80
2023/03/02 00:54:19;;;;;;;10.50;7.10;;;3.70;99.10;;;;;;5000090;28;20179;-79
2023/03/02 00:56:45;;;;;;;7.27;6.20;;;3.70;99.10;;;;;;4998185;28;20203;-78
2023/03/02 00:59:27;;;;;;;9.67;7.43;;;3.60;99.20;;;;;;5016337;28;20178;-79
2023/03/02 01:01:58;;;;;;;9.00;6.37;;;3.80;99.30;;;;;;4982189;28;20188;-79
2023/03/02 01:04:30;;;;;;;7.27;6.10;;;3.60;99.20;;;;;;5015078;28;20425;-77
2023/03/02 01:07:09;;;;;;;10.07;7.00;;;3.70;99.50;;;;;;5016889;28;20559;-77
2023/03/02 01:09:36;;;;;;;7.97;6.53;;;3.40;99.50;;;;;;5018005;28;20469;-80
2023/03/02 01:12:02;;;;;;;11.93;6.80;;;3.50;99.50;;;;;;5017441;28;20504;-77
2023/03/02 01:14:28;;;;;;;9.27;6.40;;;3.50;99.50;;;;;;5001406;28;20409;-78
2023/03/02 01:16:54;;;;;;;8.40;6.70;;;3.70;99.70;;;;;;5035662;28;20942;-77
2023/03/02 01:19:20;;;;;;;8.40;6.07;;;3.70;99.90;;;;;;5017894;28;20193;-77
2023/03/02 01:21:45;;;;;;;9.27;7.10;;;3.60;99.90;;;;;;5035447;28;20488;-80
2023/03/02 01:24:11;;;;;;;9.90;7.00;;;3.40;99.90;;;;;;5035936;28;20249;-78
2023/03/02 01:26:37;;;;;;;9.90;6.97;;;3.30;99.90;;;;;;5036693;28;20737;-81
2023/03/02 01:29:03;;;;;;;10.67;7.50;;;3.20;99.90;;;;;;5018644;28;20236;-79
2023/03/02 01:31:30;;;;;;;9.23;7.43;;;3.10;99.90;;;;;;5036922;28;20194;-79
2023/03/02 01:33:56;;;;;;;10.03;6.93;;;3.10;99.90;;;;;;5036679;28;20433;-81
2023/03/02 01:36:22;;;;;;;9.90;6.50;;;3.10;99.90;;;;;;5018862;28;20444;-80
2023/03/02 01:38:49;;;;;;;7.80;6.33;;;3.40;99.90;;;;;;5002045;28;20429;-80
2023/03/02 01:41:14;;;;;;;8.83;7.00;;;3.20;99.90;;;;;;5019283;28;20421;-79
2023/03/02 01:43:40;;;;;;;10.77;6.97;;;3.20;99.90;;;;;;5016485;28;20826;-81
2023/03/02 01:46:17;;;;;;;12.03;7.20;;;3.00;99.90;;;;;;5033910;28;20194;-79
2023/03/02 01:48:51;;;;;;;8.60;6.80;;;3.10;99.90;;;;;;5000334;28;20217;-80
2023/03/02 01:51:21;;;;;;;7.83;6.77;;;3.20;99.90;;;;;;5022662;28;20425;-79
2023/03/02 01:53:50;;;;;;;10.10;6.77;;;3.10;99.90;;;;;;5017867;28;20858;-80
2023/03/02 01:56:22;;;;;;;10.60;7.10;;;3.10;99.90;;;;;;5036838;28;20429;-78
2023/03/02 01:58:52;;;;;;;9.50;7.23;;;3.00;99.90;;;;;;5018041;28;20497;-78
2023/03/02 02:01:17;;;;;;;12.73;8.20;;;2.80;99.90;;;;;;5025967;28;20534;-78
2023/03/02 02:03:47;;;;;;;12.00;8.30;;;2.80;99.90;;;;;;5025043;28;20425;-78
2023/03/02 02:06:24;;;;;;;9.07;6.80;;;2.90;99.90;;;;;;5029138;28;20252;-81
2023/03/02 02:08:51;;;;;;;14.47;7.90;;;2.90;99.90;;;;;;5017429;28;20465;-81
2023/03/02 02:11:17;;;;;;;9.90;7.30;;;2.80;99.90;;;;;;5036203;28;20871;-81
2023/03/02 02:13:44;;;;;;;10.27;7.33;;;2.90;99.90;;;;;;5037150;28;21061;-78
2023/03/02 02:16:10;;;;;;;9.40;7.30;;;2.60;99.90;;;;;;5004447;28;20417;-81
2023/03/02 02:18:39;;;;;;;9.33;6.90;;;2.80;99.90;;;;;;5018503;28;20692;-80
2023/03/02 02:21:06;;;;;;;9.87;6.93;;;2.70;99.90;;;;;;5035510;28;20429;-79
2023/03/02 02:23:57;;;;;;;8.37;7.00;;;2.90;99.90;;;;;;5008560;28;20432;-81
2023/03/02 02:26:33;;;;;;;10.80;7.37;;;2.90;99.90;;;;;;5008675;28;20813;-80
2023/03/02 02:29:11;;;;;;;9.70;7.10;;;2.90;99.90;;;;;;5005054;28;21053;-80
2023/03/02 02:31:38;;;;;;;10.03;7.17;;;2.80;99.90;;;;;;5001555;28;20484;-77
2023/03/02 02:34:21;;;;;;;15.20;8.47;;;2.50;99.90;;;;;;5017792;28;20921;-81
2023/03/02 02:36:49;;;;;;;11.03;7.40;;;2.60;99.90;;;;;;5008464;28;20441;-79
2023/03/02 02:39:23;;;;;;;10.23;7.50;;;2.70;99.90;;;;;;5017390;28;20432;-76
2023/03/02 02:41:52;;;;;;;13.00;7.47;;;2.60;99.90;;;;;;5001503;28;21077;-78
2023/03/02 02:44:18;;;;;;;9.83;7.50;;;2.80;99.90;;;;;;5034707;28;20433;-80
2023/03/02 02:46:44;;;;;;;11.20;7.33;;;2.70;99.90;;;;;;5023242;28;20457;-78
2023/03/02 02:49:24;;;;;;;11.27;7.57;;;2.70;99.90;;;;;;5021764;28;20827;-79
2023/03/02 02:51:50;;;;;;;11.33;8.10;;;2.70;99.90;;;;;;5030469;28;20905;-79
2023/03/02 02:54:18;;;;;;;8.80;7.33;;;2.90;99.90;;;;;;5022744;28;20422;-77
2023/03/02 02:56:47;;;;;;;10.83;7.53;;;2.80;99.90;;;;;;5034203;28;20209;-76
2023/03/02 02:59:27;;;;;;;8.23;7.10;;;2.80;99.90;;;;;;5016926;28;20504;-78
2023/03/02 03:01:54;;;;;;;10.30;7.80;;;3.00;99.90;;;;;;5009452;28;20425;-81
2023/03/02 03:04:27;;;;;;;10.57;7.33;;;2.90;99.90;;;;;;5008632;28;20429;-78
2023/03/02 03:06:55;;;;;;;12.37;7.37;;;2.80;99.90;;;;;;5009648;28;20445;-80
2023/03/02 03:09:21;;;;;;;8.53;7.37;;;2.60;99.90;;;;;;5027755;28;20472;-78
2023/03/02 03:11:56;;;;;;;8.70;6.73;;;2.90;99.90;;;;;;5025039;28;20813;-79
2023/03/02 03:14:28;;;;;;;11.83;6.67;;;2.70;99.90;;;;;;5010261;28;20427;-81
2023/03/02 03:16:54;;;;;;;10.37;6.97;;;2.70;99.90;;;;;;5028388;28;20782;-81
2023/03/02 03:19:31;;;;;;;9.27;6.37;;;2.70;99.90;;;;;;5034504;28;20432;-77
2023/03/02 03:21:59;;;;;;;10.67;6.20;;;2.60;99.90;;;;;;5000380;28;20213;-79
2023/03/02 03:24:27;;;;;;;9.43;7.17;;;2.90;99.90;;;;;;5034340;28;20972;-79
2023/03/02 03:26:54;;;;;;;8.53;6.53;;;2.70;99.90;;;;;;5011310;28;20484;-80
2023/03/02 03:29:23;;;;;;;10.83;7.03;;;2.50;99.90;;;;;;5022793;28;20519;-77
2023/03/02 03:31:50;;;;;;;9.07;7.00;;;2.80;99.90;;;;;;5003281;28;20425;-79
2023/03/02 03:34:16;;;;;;;9.33;7.00;;;2.60;99.90;;;;;;5034059;28;20512;-80
2023/03/02 03:36:42;;;;;;;9.13;6.70;;;2.70;99.90;;;;;;5017884;28;20473;-77
2023/03/02 03:39:09;;;;;;;7.67;6.13;;;2.60;99.90;;;;;;5024165;28;20893;-80
2023/03/02 03:41:35;;;;;;;8.03;6.37;;;2.60;99.90;;;;;;5019906;28;21009;-77
2023/03/02 03:44:02;;;;;;;8.53;6.80;;;2.60;99.90;;;;;;5015811;28;20424;-79
2023/03/02 03:46:28;;;;;;;10.47;7.00;;;2.50;99.90;;;;;;5022285;28;20539;-76
2023/03/02 03:48:54;;;;;;;9.00;7.00;;;2.60;99.90;;;;;;5034105;28;20465;-79
2023/03/02 03:51:20;;;;;;;8.87;6.50;;;2.60;99.90;;;;;;5034490;28;20429;-78
2023/03/02 03:53:58;;;;;;;8.23;6.33;;;2.30;99.90;;;;;;5022594;28;21056;-80
2023/03/02 03:56:29;;;;;;;8.07;6.17;;;2.50;99.90;;;;;;5020498;28;20205;-78
2023/03/02 03:59:07;;;;;;;10.40;6.63;;;2.40;99.90;;;;;;5025177;28;20743;-79
2023/03/02 04:01:34;;;;;;;10.73;6.70;;;2.30;99.90;;;;;;5017054;28;20431;-80
2023/03/02 04:04:02;;;;;;;8.43;6.80;;;2.60;99.90;;;;;;5035017;28;20425;-79
2023/03/02 04:06:27;;;;;;;8.40;5.90;;;2.60;99.90;;;;;;5033383;28;20437;-81
2023/03/02 04:08:53;;;;;;;9.70;6.90;;;2.50;99.90;;;;;;5034627;28;20459;-80
2023/03/02 04:11:19;;;;;;;11.20;8.30;;;2.50;99.90;;;;;;5000281;28;20178;-81
2023/03/02 04:13:44;;;;;;;12.30;7.90;;;2.60;99.90;;;;;;5000020;28;20175;-78
2023/03/02 04:16:10;;;;;;;9.43;6.57;;;2.40;99.90;;;;;;5034020;28;20193;-79
2023/03/02 04:18:36;;;;;;;9.30;6.57;;;2.30;99.90;;;;;;5016336;28;20189;-79
2023/03/02 04:21:01;;;;;;;13.67;7.43;;;2.30;99.90;;;;;;5034170;28;20190;-77
2023/03/02 04:23:27;;;;;;;8.97;6.77;;;2.40;99.90;;;;;;5016454;28;20565;-79
2023/03/02 04:25:52;;;;;;;13.83;6.60;;;2.30;99.90;;;;;;5016342;28;20206;-77
2023/03/02 04:28:18;;;;;;;7.97;6.40;;;2.30;99.90;;;;;;5016268;28;20222;-78
2023/03/02 04:30:44;;;;;;;9.23;7.17;;;2.40;99.90;;;;;;5016745;28;20202;-80
2023/03/02 04:33:10;;;;;;;11.20;7.07;;;2.10;99.90;;;;;;5034899;28;20209;-80
2023/03/02 04:35:35;;;;;;;10.57;6.90;;;2.20;99.90;;;;;;5000087;28;20190;-77
2023/03/02 04:38:01;;;;;;;9.40;6.67;;;2.30;99.90;;;;;;5015749;28;20199;-79
2023/03/02 04:40:27;;;;;;;7.57;6.37;;;2.10;99.90;;;;;;5034452;28;20178;-78
2023/03/02 04:42:53;;;;;;;8.47;6.10;;;2.20;99.90;;;;;;5033965;28;20194;-79
2023/03/02 04:45:18;;;;;;;8.40;6.37;;;2.20;99.90;;;;;;5000062;28;20463;-79
2023/03/02 04:47:44;;;;;;;8.10;6.57;;;2.00;99.90;;;;;;5016541;28;20218;-81
2023/03/02 04:50:13;;;;;;;9.43;6.63;;;2.10;99.90;;;;;;5034337;28;20667;-79
2023/03/02 04:52:39;;;;;;;9.50;6.80;;;2.10;99.90;;;;;;5017295;28;20189;-78
2023/03/02 04:55:05;;;;;;;9.17;5.80;;;2.20;99.90;;;;;;5016201;28;20475;-79
2023/03/02 04:57:32;;;;;;;11.93;6.30;;;2.40;99.90;;;;;;4999357;28;20440;-80
2023/03/02 04:59:57;;;;;;;8.67;6.07;;;2.40;99.90;;;;;;5016164;28;21080;-79
2023/03/02 05:02:23;;;;;;;9.37;6.17;;;2.10;99.90;;;;;;5034257;28;20452;-81
2023/03/02 05:04:49;;;;;;;8.80;6.13;;;2.20;99.90;;;;;;5034730;28;20340;-80
2023/03/02 05:07:15;;;;;;;6.83;5.70;;;2.20;99.90;;;;;;5016565;28;20806;-79
2023/03/02 05:09:40;;;;;;;11.40;5.97;;;2.10;99.90;;;;;;5000055;28;20577;-79
2023/03/02 05:12:06;;;;;;;7.70;6.23;;;2.10;99.90;;;;;;5017696;28;20635;-80
2023/03/02 05:14:33;;;;;;;7.10;5.90;;;2.20;99.90;;;;;;5019854;28;20258;-80
2023/03/02 05:16:59;;;;;;;7.90;6.00;;;2.40;99.90;;;;;;5003728;28;20250;-78
2023/03/02 05:19:24;;;;;;;8.40;6.60;;;2.40;99.90;;;;;;5004058;28;20413;-79
2023/03/02 05:21:50;;;;;;;10.30;6.10;;;2.20;99.90;;;;;;5021434;28;20253;-80
2023/03/02 05:24:16;;;;;;;7.80;6.10;;;2.30;99.90;;;;;;5021531;28;20191;-77
2023/03/02 05:26:42;;;;;;;10.13;6.87;;;2.40;99.90;;;;;;5036793;28;20220;-80
2023/03/02 05:29:07;;;;;;;15.80;6.17;;;2.30;99.90;;;;;;5003289;28;20214;-80
2023/03/02 05:31:37;;;;;;;8.03;6.23;;;2.30;99.90;;;;;;5036563;28;20221;-77
2023/03/02 05:34:05;;;;;;;7.93;6.03;;;2.10;99.90;;;;;;5036960;28;20174;-80
2023/03/02 05:36:31;;;;;;;9.33;6.77;;;2.00;99.90;;;;;;5003185;28;20441;-79
2023/03/02 05:38:57;;;;;;;11.33;7.23;;;2.10;99.90;;;;;;5036403;28;20429;-79
2023/03/02 05:41:23;;;;;;;8.80;6.87;;;2.10;99.90;;;;;;5019414;28;20512;-78
2023/03/02 05:43:48;;;;;;;10.80;7.83;;;2.10;99.90;;;;;;5019524;28;20443;-81
2023/03/02 05:46:16;;;;;;;10.70;7.33;;;2.20;99.90;;;;;;5002668;28;20190;-80
2023/03/02 05:48:42;;;;;;;9.33;7.27;;;2.00;99.90;;;;;;5018961;28;20210;-79
2023/03/02 05:51:07;;;;;;;9.67;7.40;;;2.00;99.90;;;;;;5000093;28;20433;-76
2023/03/02 05:53:33;;;;;;;12.00;7.13;;;2.30;99.90;;;;;;5027161;28;20758;-77
2023/03/02 05:55:59;;;;;;;7.70;5.93;;;2.20;99.90;;;;;;5030634;28;20265;-77
2023/03/02 05:58:25;;;;;;;9.00;7.30;;;2.00;99.90;;;;;;5020486;28;20205;-77
2023/03/02 06:00:51;;;;;;;9.00;6.90;;;2.00;99.90;;;;;;5030672;28;20416;-77
2023/03/02 06:03:17;;;;;;;10.23;7.37;;;1.90;99.90;;;;;;5033540;28;20929;-80
2023/03/02 06:05:43;;;;;;;9.87;7.10;;;2.10;99.90;;;;;;4999804;28;20171;-81
2023/03/02 06:08:09;;;;;;;13.63;7.90;;;2.10;99.90;;;;;;5016434;28;20470;-80
2023/03/02 06:10:34;;;;;;;10.30;7.57;;;1.90;99.90;;;;;;4999330;28;20520;-80
2023/03/02 06:13:00;;;;;;;13.00;7.40;;;2.00;99.90;;;;;;5016722;28;20452;-81
2023/03/02 06:15:29;;;;;;;9.90;6.73;;;2.00;99.90;;;;;;5008569;28;20182;-80
2023/03/02 06:17:58;;;;;;;8.83;6.73;;;1.80;99.90;;;;;;5021852;28;20460;-79
2023/03/02 06:20:24;;;;;;;10.50;7.83;;;2.00;99.90;;;;;;5015635;28;20425;-77
2023/03/02 06:22:50;;;;;;;10.33;7.07;;;2.10;99.90;;;;;;5026515;28;20481;-80
2023/03/02 06:25:21;;;;;;;11.37;7.27;;;2.00;99.90;;;;;;5001449;28;20526;-81
2023/03/02 06:27:50;;;;;;;11.70;8.20;;;2.00;99.90;;;;;;5035858;28;20682;-79
2023/03/02 06:30:18;;;;;;;11.80;7.27;;;1.90;99.90;;;;;;5018492;28;20461;-81
2023/03/02 06:32:44;;;;;;;11.33;7.37;;;2.20;99.90;;;;;;5032466;28;20497;-78
2023/03/02 06:35:11;;;;;;;11.07;6.97;;;2.20;99.90;;;;;;5002184;28;20836;-81
2023/03/02 06:37:37;;;;;;;10.37;7.57;;;2.20;99.90;;;;;;5036257;28;20441;-79
2023/03/02 06:40:09;;;;;;;12.80;7.87;;;2.00;99.90;;;;;;5026706;28;20925;-80
2023/03/02 06:42:35;;;;;;;8.83;7.27;;;2.10;99.90;;;;;;5018589;28;20428;-81
2023/03/02 06:45:01;;;;;;;9.87;7.00;;;1.90;99.90;;;;;;5018067;28;20427;-78
2023/03/02 06:47:26;;;;;;;9.57;7.53;;;2.10;99.90;;;;;;5017365;28;20445;-81
2023/03/02 06:49:52;;;;;;;10.47;8.50;;;2.00;99.90;;;;;;5005507;28;20919;-80
2023/03/02 06:52:18;;;;;;;11.27;7.00;;;2.00;99.90;;;;;;4998596;28;20179;-79
2023/03/02 06:54:43;;;;;;;8.90;6.73;;;2.00;99.90;;;;;;5022033;28;20235;-78
2023/03/02 06:57:09;;;;;;;10.70;6.23;;;2.10;99.90;;;;;;5031086;28;20282;-77
2023/03/02 06:59:35;;;;;;;9.20;6.60;;;2.00;99.90;;;;;;5026933;28;20569;-81
2023/03/02 07:02:01;;;;;;;11.00;7.43;;;2.00;99.90;;;;;;5025505;28;20200;-80
2023/03/02 07:04:27;;;;;;;9.50;7.13;;;2.00;99.90;;;;;;5000941;28;20217;-79
2023/03/02 07:06:53;;;;;;;10.33;7.33;;;2.20;99.90;;;;;;5036997;28;20213;-81
2023/03/02 07:09:19;;;;;;;9.23;6.43;;;2.00;99.90;;;;;;5006405;28;20821;-80
2023/03/02 07:11:44;;;;;;;9.20;7.23;;;2.00;99.90;;;;;;5022707;28;20432;-79
2023/03/02 07:14:10;;;;;;;9.33;6.90;;;2.00;99.90;;;;;;5030398;28;20262;-80
2023/03/02 07:16:36;;;;;;;11.70;7.00;;;2.00;99.90;;;;;;5006984;28;20338;-80
2023/03/02 07:19:01;;;;;;;12.07;7.33;;;2.20;99.90;;;;;;5001771;28;20193;-82
2023/03/02 07:21:27;;;;;;;10.10;7.30;;;2.20;99.90;;;;;;4999539;28;20187;-80
2023/03/02 07:23:53;;;;;;;9.60;7.27;;;2.40;99.90;;;;;;5012518;28;20328;-82
2023/03/02 07:26:18;;;;;;;10.33;7.07;;;2.20;99.90;;;;;;5017538;28;20191;-81
2023/03/02 07:28:44;;;;;;;10.23;7.30;;;2.20;99.90;;;;;;5000429;28;20446;-78
2023/03/02 07:31:10;;;;;;;11.40;7.60;;;2.10;99.90;;;;;;5033261;28;20175;-82
2023/03/02 07:33:38;;;;;;;11.50;6.43;;;2.40;99.90;;;;;;5017284;28;20240;-80
2023/03/02 07:36:06;;;;;;;9.13;7.20;;;2.10;99.90;;;;;;5016885;28;20413;-80
2023/03/02 07:38:32;;;;;;;13.00;7.70;;;2.40;99.90;;;;;;5030974;28;20424;-79
2023/03/02 07:40:58;;;;;;;10.83;7.00;;;2.30;99.90;;;;;;5054642;28;20421;-80
2023/03/02 07:43:25;;;;;;;11.50;7.87;;;2.50;99.90;;;;;;5003433;28;20900;-78
2023/03/02 07:45:51;;;;;;;9.20;7.27;;;2.70;99.90;;;;;;5022333;28;20405;-81
2023/03/02 07:48:17;;;;;;;10.43;7.43;;;2.80;99.90;;;;;;5007397;28;20437;-80
2023/03/02 07:50:42;;;;;;;15.30;7.23;;;3.20;99.90;;;;;;5022623;28;20462;-81
2023/03/02 07:53:08;;;;;;;11.67;7.50;;;3.40;99.90;;;;;;5035532;28;20417;-77
2023/03/02 07:55:34;;;;;;;13.47;8.67;;;3.60;99.90;;;;;;5006029;28;20175;-80
2023/03/02 07:57:59;;;;;;;10.03;7.43;;;3.70;99.90;;;;;;5008998;28;20280;-80
2023/03/02 08:00:26;;;;;;;11.53;8.30;;;4.10;99.90;;;;;;5013440;28;20269;-78
2023/03/02 08:02:51;;;;;;;9.97;7.90;;;4.20;99.60;;;;;;5001395;28;20182;-79
2023/03/02 08:05:17;;;;;;;12.97;7.00;;;4.40;99.40;;;;;;5016226;28;20424;-81
2023/03/02 08:07:45;;;;;;;11.03;8.30;;;4.50;99.10;;;;;;5028475;28;20570;-79
2023/03/02 08:10:11;;;;;;;13.80;7.77;;;4.80;98.60;;;;;;4995811;28;20225;-80
2023/03/02 08:12:37;;;;;;;15.40;8.77;;;4.90;98.00;;;;;;4996546;28;20857;-78
2023/03/02 08:15:02;;;;;;;11.80;7.30;;;5.20;97.90;;;;;;4996143;28;20179;-81
2023/03/02 08:17:28;;;;;;;8.90;7.20;;;5.30;97.80;;;;;;4996489;28;20226;-80
2023/03/02 08:19:54;;;;;;;10.90;7.47;;;5.30;97.30;;;;;;4996576;28;20502;-79
2023/03/02 08:22:19;;;;;;;10.23;7.40;;;5.50;97.20;;;;;;4994821;28;20236;-80
2023/03/02 08:24:45;;;;;;;9.57;7.43;;;5.90;96.60;;;;;;4995998;28;20218;-77
2023/03/02 08:27:13;;;;;;;10.17;7.30;;;5.80;95.90;;;;;;4995783;28;20691;-81
2023/03/02 08:29:38;;;;;;;10.73;7.60;;;6.10;95.80;;;;;;4995274;28;20221;-79
2023/03/02 08:32:04;;;;;;;10.00;7.23;;;6.20;96.00;;;;;;5014415;28;20449;-80
2023/03/02 08:34:30;;;;;;;11.20;7.07;;;6.30;95.30;;;;;;4996075;28;20183;-79
2023/03/02 08:36:56;;;;;;;9.13;7.30;;;6.50;94.90;;;;;;5010775;28;20460;-77
2023/03/02 08:39:22;;;;;;;10.73;7.07;;;6.70;94.40;;;;;;5053265;28;20623;-80
2023/03/02 08:41:52;;;;;;;10.27;7.93;;;6.80;93.70;;;;;;5053455;28;20543;-78
2023/03/02 08:44:19;;;;;;;12.57;9.07;;;6.90;92.90;;;;;;5034719;28;20925;-78
2023/03/02 08:46:45;;;;;;;8.97;6.70;;;7.00;93.10;;;;;;5017661;28;20436;-81
2023/03/02 08:49:11;;;;;;;8.83;6.67;;;7.10;93.10;;;;;;5022384;28;21003;-80
2023/03/02 08:51:36;;;;;;;9.50;7.10;;;7.10;92.20;;;;;;5038920;28;20178;-78
2023/03/02 08:54:02;;;;;;;9.50;6.37;;;7.20;91.80;;;;;;5038866;28;20599;-79
2023/03/02 08:56:31;;;;;;;9.77;7.50;;;7.20;91.90;;;;;;5039068;28;20227;-79
2023/03/02 08:58:59;;;;;;;14.00;7.73;;;7.40;91.90;;;;;;5022004;28;20190;-79
2023/03/02 09:01:28;;;;;;;11.03;6.80;;;7.40;91.40;;;;;;5039090;28;20564;-81
2023/03/02 09:03:55;;;;;;;11.17;7.50;;;7.40;91.20;;;;;;5025710;28;20801;-78
2023/03/02 09:06:21;;;;;;;11.60;7.83;;;7.60;91.30;;;;;;5003510;28;20447;-79
2023/03/02 09:08:48;;;;;;;10.00;7.87;;;7.60;90.30;;;;;;5018951;28;20452;-80
2023/03/02 09:11:14;;;;;;;11.67;7.23;;;7.70;90.80;;;;;;5036912;28;20437;-78
2023/03/02 09:13:40;;;;;;;11.40;6.67;;;7.80;90.70;;;;;;5036819;28;20440;-79
2023/03/02 09:16:07;;;;;;;7.37;6.63;;;7.90;90.10;;;;;;5019166;28;20492;-77
2023/03/02 09:18:33;;;;;;;9.00;6.80;;;8.00;89.00;;;;;;5036311;28;20265;-81
2023/03/02 09:20:59;;;;;;;8.20;6.90;;;8.10;88.90;;;;;;5037220;28;20483;-80
2023/03/02 09:23:26;;;;;;;12.20;8.10;;;8.20;89.20;;;;;;5018657;28;20425;-81
2023/03/02 09:25:52;;;;;;;9.80;7.10;;;8.20;87.40;;;;;;5003182;28;20696;-78
2023/03/02 09:28:20;;;;;;;8.03;6.50;;;8.30;85.30;;;;;;5019561;28;20603;-80
2023/03/02 09:30:56;;;;;;;8.37;6.90;;;8.40;86.00;;;;;;5001760;28;20464;-78
2023/03/02 09:33:22;;;;;;;9.80;7.03;;;8.40;85.30;;;;;;5036449;28;20492;-79
2023/03/02 09:35:48;;;;;;;9.07;6.10;;;8.50;86.00;;;;;;5019125;28;20413;-78
2023/03/02 09:38:15;;;;;;;8.33;6.30;;;8.60;86.40;;;;;;5031047;28;20523;-80
2023/03/02 09:40:53;;;;;;;7.70;6.73;;;8.80;85.60;;;;;;5056184;28;20178;-81
2023/03/02 09:43:34;;;;;;;6.90;6.07;;;8.90;84.20;;;;;;5021095;28;20416;-80
2023/03/02 09:46:29;;;;;;;9.27;7.07;;;8.90;83.90;;;;;;5038687;28;20451;-81
2023/03/02 09:48:57;;;;;;;7.33;6.53;;;9.00;82.10;;;;;;5004200;28;20539;-78
2023/03/02 09:51:41;;;;;;;9.13;6.80;;;9.00;81.50;;;;;;5038255;28;20413;-78
2023/03/02 09:54:08;;;;;;;9.70;6.97;;;9.20;83.60;;;;;;5037062;28;20413;-77
2023/03/02 09:56:53;;;;;;;8.17;7.17;;;9.20;81.70;;;;;;5037349;28;20436;-81
2023/03/02 09:59:38;;;;;;;10.07;6.63;;;9.30;80.00;;;;;;5037173;28;20499;-79
2023/03/02 10:02:16;;;;;;;8.07;6.63;;;9.30;82.00;;;;;;5021131;28;20442;-80
2023/03/02 10:04:45;;;;;;;10.30;7.23;;;9.30;81.00;;;;;;5002244;28;20417;-81
2023/03/02 10:07:18;;;;;;;8.77;6.37;;;9.40;81.00;;;;;;5020179;28;20452;-80
2023/03/02 10:09:45;;;;;;;7.77;6.27;;;9.40;79.40;;;;;;5020769;28;20464;-81
2023/03/02 10:12:52;;;;;;;8.30;6.30;;;9.40;79.70;;;;;;5003849;28;20405;-82
2023/03/02 10:15:26;;;;;;;10.50;7.17;;;9.40;79.20;;;;;;5036172;28;20524;-82
2023/03/02 10:17:57;;;;;;;7.43;6.27;;;9.50;79.20;;;;;;5018905;28;20775;-78
2023/03/02 10:20:52;;;;;;;6.77;5.80;;;9.60;80.00;;;;;;5036948;28;20424;-79
2023/03/02 10:23:36;;;;;;;10.33;6.50;;;9.80;79.80;;;;;;5016186;28;20439;-81
2023/03/02 10:26:07;;;;;;;8.03;6.70;;;9.90;77.70;;;;;;5002792;28;21138;-82
2023/03/02 10:28:42;;;;;;;10.13;6.60;;;9.90;76.90;;;;;;5018107;28;20418;-81
2023/03/02 10:31:13;;;;;;;11.03;6.83;;;10.00;77.80;;;;;;5034926;28;20417;-79
2023/03/02 10:33:40;;;;;;;10.70;7.60;;;10.00;76.00;;;;;;5031383;28;20417;-79
2023/03/02 10:36:21;;;;;;;8.40;6.77;;;10.00;76.00;;;;;;5013526;28;20410;-80
2023/03/02 10:38:47;;;;;;;9.50;6.10;;;10.10;77.10;;;;;;5031006;28;20495;-79
2023/03/02 10:41:21;;;;;;;8.00;6.90;;;10.10;75.00;;;;;;5031136;28;20508;-79
2023/03/02 10:43:54;;;;;;;7.77;6.13;;;10.20;76.40;;;;;;5013383;28;20444;-79
2023/03/02 10:46:20;;;;;;;8.57;6.40;;;10.20;74.30;;;;;;5031094;28;20417;-77
2023/03/02 10:48:49;;;;;;;10.10;6.57;;;10.10;72.80;;;;;;5030121;28;20440;-79
2023/03/02 10:51:29;;;;;;;8.47;7.07;;;10.20;74.80;;;;;;4996776;28;20420;-79
2023/03/02 10:54:13;;;;;;;11.07;7.30;;;10.20;75.20;;;;;;5013181;28;20900;-79
2023/03/02 10:56:48;;;;;;;9.97;6.73;;;10.30;74.80;;;;;;5030712;28;20432;-79
2023/03/02 10:59:42;;;;;;;8.00;6.40;;;10.30;76.10;;;;;;5031101;28;20413;-79
2023/03/02 11:02:23;;;;;;;7.67;6.37;;;10.30;75.50;;;;;;5013219;28;20470;-79
2023/03/02 11:04:56;;;;;;;9.33;5.97;;;10.30;74.70;;;;;;5030831;28;20420;-79
2023/03/02 11:07:25;;;;;;;8.40;6.17;;;10.20;69.80;;;;;;5030357;28;20417;-78
2023/03/02 11:10:20;;;;;;;7.87;6.60;;;10.10;69.70;;;;;;5030000;28;20445;-79
2023/03/02 11:12:48;;;;;;;10.43;6.17;;;9.90;68.70;;;;;;5012214;28;20425;-80
2023/03/02 11:15:20;;;;;;;7.90;5.90;;;9.80;70.70;;;;;;5012741;28;20880;-79
2023/03/02 11:18:08;;;;;;;10.97;6.83;;;9.60;67.70;;;;;;5030020;28;20429;-79
2023/03/02 11:20:38;;;;;;;9.03;6.30;;;9.50;70.20;;;;;;4989934;28;20890;-78
2023/03/02 11:23:31;;;;;;;8.07;6.17;;;9.40;71.90;;;;;;5030158;28;20790;-80
2023/03/02 11:26:03;;;;;;;7.00;6.10;;;9.40;72.80;;;;;;5030525;28;20409;-78
2023/03/02 11:28:55;;;;;;;9.30;6.30;;;9.50;71.10;;;;;;5029892;28;20425;-79
2023/03/02 11:31:39;;;;;;;8.87;6.80;;;9.30;69.00;;;;;;5011790;28;20450;-79
2023/03/02 11:34:19;;;;;;;8.77;5.87;;;9.20;69.70;;;;;;5012439;28;20470;-79
2023/03/02 11:36:58;;;;;;;7.33;5.67;;;9.20;70.20;;;;;;4995966;28;20472;-79
2023/03/02 11:39:35;;;;;;;7.20;6.30;;;9.30;72.20;;;;;;5012430;28;20401;-79
2023/03/02 11:42:01;;;;;;;7.10;5.33;;;9.40;69.60;;;;;;5012536;28;20407;-79
2023/03/02 11:44:28;;;;;;;6.00;5.20;;;9.30;69.20;;;;;;5029723;28;20476;-79
2023/03/02 11:47:00;;;;;;;9.23;5.93;;;9.40;69.60;;;;;;5029889;28;20674;-79
2023/03/02 11:49:44;;;;;;;7.50;5.73;;;9.50;70.10;;;;;;5012141;28;20453;-78
2023/03/02 11:52:22;;;;;;;10.07;5.60;;;9.60;69.80;;;;;;5029995;28;20413;-79
2023/03/02 11:54:59;;;;;;;6.60;5.20;;;9.70;69.20;;;;;;5029958;28;20417;-79
2023/03/02 11:57:32;;;;;;;6.83;5.23;;;9.80;69.90;;;;;;5012035;28;20425;-79
2023/03/02 11:59:59;;;;;;;8.00;6.10;;;9.90;70.30;;;;;;5012164;28;20445;-78
2023/03/02 12:02:26;;;;;;;6.30;5.60;;;10.10;70.10;;;;;;5011991;28;20420;-78
2023/03/02 12:05:21;;;;;;;5.67;4.93;;;10.10;68.40;;;;;;5012456;28;20781;-79
2023/03/02 12:07:59;;;;;;;10.00;5.60;;;10.10;67.80;;;;;;5029890;28;20469;-78
2023/03/02 12:10:42;;;;;;;8.40;5.30;;;10.20;67.20;;;;;;5029772;28;20440;-78
2023/03/02 12:13:20;;;;;;;8.13;5.77;;;10.20;65.10;;;;;;5012008;28;21107;-79
2023/03/02 12:15:51;;;;;;;7.73;5.83;;;10.10;65.20;;;;;;5012199;28;20420;-77
2023/03/02 12:18:20;;;;;;;10.10;6.20;;;10.20;67.60;;;;;;5011802;28;20441;-78
2023/03/02 12:21:04;;;;;;;6.53;5.50;;;10.20;68.30;;;;;;5029931;28;20413;-78
2023/03/02 12:23:32;;;;;;;7.40;5.67;;;10.20;68.10;;;;;;5033828;28;20416;-78
2023/03/02 12:26:01;;;;;;;5.57;5.00;;;10.30;67.50;;;;;;5016348;28;20416;-79
2023/03/02 12:28:31;;;;;;;6.83;5.53;;;10.40;67.90;;;;;;4999405;28;20460;-79
2023/03/02 12:31:09;;;;;;;7.43;5.20;;;10.20;67.00;;;;;;5014958;28;20790;-79
2023/03/02 12:33:42;;;;;;;5.97;4.70;;;10.30;65.40;;;;;;5033578;28;20898;-78
2023/03/02 12:36:21;;;;;;;9.40;5.50;;;10.30;66.40;;;;;;5033881;28;20428;-78
2023/03/02 12:39:03;;;;;;;8.40;5.27;;;10.40;65.40;;;;;;5033351;28;20886;-78
2023/03/02 12:42:02;;;;;;;8.00;5.47;;;10.40;65.90;;;;;;5015853;28;20405;-78
2023/03/02 12:44:34;;;;;;;7.13;5.57;;;10.50;66.00;;;;;;5033357;28;20501;-78
2023/03/02 12:47:00;;;;;;;8.63;6.30;;;10.60;65.70;;;;;;5014460;28;20500;-78
2023/03/02 12:49:44;;;;;;;6.27;5.27;;;10.70;64.60;;;;;;5033089;28;20899;-78
2023/03/02 12:52:22;;;;;;;8.47;4.90;;;10.70;62.10;;;;;;5033184;28;20910;-78
2023/03/02 12:54:58;;;;;;;7.20;5.50;;;10.70;61.30;;;;;;5015466;28;20503;-78
2023/03/02 12:57:24;;;;;;;8.23;5.23;;;10.70;60.40;;;;;;5015323;28;20440;-78
2023/03/02 12:59:51;;;;;;;7.27;5.57;;;10.60;62.90;;;;;;5015213;28;20788;-79
2023/03/02 13:02:20;;;;;;;6.77;5.13;;;10.70;63.60;;;;;;5032945;28;20265;-78
2023/03/02 13:05:16;;;;;;;7.00;5.23;;;10.80;64.80;;;;;;5032812;28;20425;-78